Main page
METAR-TAF:

METAR-TAF

Airports :

Basra International Airport

Basra, Iraq

latitude: 30-32-56N, longitude: 47-39-45E, elevation: 1 m

Current weather observation

The report was made 53 minutes ago, at 01:00 UTC
Wind 8 kt from the West
Temperature 4°C
Humidity 75%
Pressure 1025 hPa
Visibility 10 km or more
no clouds below 1500 m and no cumulonimbus

METAR: ORMM 200100Z 27008KT CAVOK 04/00 Q1025 NOSIG

Time: 04:53 (01:53 UTC)

Forecast

The report was made 3 hours and 53 minutes ago, at 22:00 UTC
Forecast valid from 20 at 00 UTC to 20 at 24 UTC
Wind 8 kt from the West
Visibility 10 km or more
no clouds below 1500 m and no cumulonimbus

TAF: ORMM 192200Z 2000/2024 27008KT CAVOK

Weather observations and forecasts of more than 4000 airports (METAR and TAF reports).

The available stations are represented by yellow and red dots on the map.

Hover mouse over dot to see the name of the station.

Then click to see weather observations and forecasts.

To change the map : click on the green buttons with a black cross to zoom in, on the green button with a dash to zoom out, or on the green arrows for adjacent maps.


METAR-TAF: